This is the latest recevied weather packets stored in our database for station/object K7ZQU-7. If no packets are shown the sender has not sent any weather packets the latest 10 day(s).
| Time | Temp. | Humidity | Pressure | Rain* | Wind** | Luminosity | Snow |
|---|---|---|---|---|---|---|---|
| 1777234814 | 9.44° C | 36% | 1007 hPa | 0 mm | 2.24 m/s, 208° | - | - |
| 1777234515 | 8.89° C | 36% | 1007 hPa | 0 mm | 0.45 m/s, 32° | - | - |
| 1777233616 | 8.33° C | 39% | 1007.2 hPa | 0 mm | 1.34 m/s, 285° | - | - |
| 1777233317 | 8.33° C | 38% | 1007 hPa | 0 mm | 0.89 m/s, 312° | - | - |
| 1777233018 | 8.33° C | 39% | 1007.2 hPa | 0 mm | 2.68 m/s, 305° | - | - |
| 1777232719 | 8.33° C | 39% | 1007.2 hPa | 0 mm | 1.34 m/s, 322° | - | - |
| 1777232132 | 9.44° C | 36% | 1007 hPa | 0 mm | 1.34 m/s, 311° | - | - |
| 1777231820 | 10° C | 36% | 1007 hPa | 0 mm | 1.79 m/s, 301° | - | - |
| 1777231521 | 10.56° C | 33% | 1006.9 hPa | 0 mm | 2.24 m/s, 315° | - | - |
| 1777230923 | 10° C | 35% | 1006.8 hPa | 0 mm | 0.89 m/s, 281° | - | - |
| 1777230322 | 8.89° C | 39% | 1006.7 hPa | 0 mm | 0.89 m/s, 267° | - | - |
| 1777229724 | 7.78° C | 40% | 1006.8 hPa | 0 mm | 0 m/s | - | - |
| 1777229426 | 7.78° C | 39% | 1006.8 hPa | 0 mm | 0.45 m/s, 330° | - | - |
| 1777229124 | 8.33° C | 37% | 1006.8 hPa | 0 mm | 1.79 m/s, 339° | - | - |
| 1777228825 | 8.33° C | 38% | 1006.8 hPa | 0 mm | 1.34 m/s, 224° | - | - |
| 1777228526 | 8.33° C | 40% | 1006.7 hPa | 0 mm | 1.79 m/s, 352° | - | - |
| 1777228227 | 7.78° C | 40% | 1006.7 hPa | 0 mm | 2.68 m/s, 347° | - | - |
| 1777227928 | 7.22° C | 39% | 1006.7 hPa | 0 mm | 2.24 m/s, 318° | - | - |
| 1777227626 | 7.78° C | 36% | 1006.6 hPa | 0 mm | 0 m/s | - | - |
| 1777227327 | 7.78° C | 36% | 1006.6 hPa | 0 mm | 0 m/s | - | - |
| 1777226430 | 7.78° C | 39% | 1006.3 hPa | 0 mm | 1.79 m/s, 314° | - | - |
| 1777226129 | 7.78° C | 37% | 1006.2 hPa | 0 mm | 0 m/s | - | - |
| 1777225830 | 7.78° C | 36% | 1006.2 hPa | 0 mm | 0.89 m/s, 330° | - | - |
| 1777225545 | 7.22° C | 37% | 1006.1 hPa | 0 mm | 2.24 m/s, 45° | - | - |
| 1777224933 | 6.11° C | 41% | 1006.1 hPa | 0 mm | 0 m/s | - | - |
* Rain latest hour (hover to see other rain measurements)
** Current wind speed in m/s (hover to see current wind gust speed)